Elloree, SC (29047)

8:30 AM EST on December 29, 2014 (GMT -0500)
Santee State Park-K9YS | Change Station
CLOSE
Current Station
Personal Weather Station
Location: Santee, SC
Elevation: 135 ft
Nearby Weather Stations

Elev 135 ft 33.52 °N, 80.50 °W | Updated 6 seconds ago

Overcast
Overcast
61.7 °F
Feels Like 61.7 °F
N
0.0
Wind Variable Wind from SE
Gusts 1.0 mph

Today
High -- | Low -- °F
--% Chance of Precip.
Yesterday
High -- | Low -- °F
Precip. -- in
7:25 AM 5:23 PM
First Quarter, 59% visible
Pressure 30.03 in
Visibility 6.0 miles
Clouds Overcast 500 ft
Dew Point 61 °F
Humidity 99%
Rainfall 0.00 in
Snow Depth Not available.
UV 0 out of 12
Pollen .10 out of 12
Air Quality Not available.
Flu Activity Not available.
METAR KOGB 291253Z AUTO 25008KT 6SM BR OVC005 17/16 A3003 RMK AO2 SLP167 T01670156

More Conditions Fewer Conditions

Pressure 30.03 in
Visibility 6.0 miles
Clouds Overcast 500 ft
Dew Point 61 °F
Humidity 99%
Rainfall 0.00 in
Snow Depth Not available.
UV 0 out of 12
Pollen .10 out of 12
Air Quality Not available.
Flu Activity Not available.
METAR KOGB 291253Z AUTO 25008KT 6SM BR OVC005 17/16 A3003 RMK AO2 SLP167 T01670156

More Conditions Fewer Conditions

10-Day Weather Forecast

Almanac

Astronomy

Dec. 29, 2014 Rise Set
Actual Time
Civil Twilight
Nautical Twilight
Astronomical Twilight
Moon
Length of Visible Light
Length of Day
Tomorrow will be .
, % of the Moon is Illuminated

Today's Extremes

State Highs State Lows

Community

WunderPhotos

Upload Photos

1,781,580 photos uploaded!

WunderBlogs® & News

Nearby

Air Quality

  Air Quality AQ Index Pollutant
Not available.

Snow Depth

Station Depth Elevation

Earthquake Activity

City Distance Mag. Time & Date
Minimum magnitude displayed is 2.5.

Coastal Water Temperatures

Place Temperature

Nearby Weather Stations